createdAt,value
2023-02-04T00:00:46.634Z,6.60
2023-02-04T00:06:00.251Z,6.60
2023-02-04T00:08:28.464Z,6.50
2023-02-04T00:10:56.225Z,6.50
2023-02-04T00:16:13.447Z,6.40
2023-02-04T00:18:41.212Z,6.50
2023-02-04T00:21:09.298Z,6.50
2023-02-04T00:23:36.796Z,6.50
2023-02-04T00:26:05.342Z,6.50
2023-02-04T00:28:33.465Z,6.40
2023-02-04T00:31:01.125Z,6.40
2023-02-04T00:33:29.511Z,6.40
2023-02-04T00:35:56.946Z,6.30
2023-02-04T00:38:24.538Z,6.20
2023-02-04T00:40:52.117Z,6.30
2023-02-04T00:43:39.507Z,6.20
2023-02-04T00:46:06.939Z,6.20
2023-02-04T00:48:35.926Z,6.20
2023-02-04T00:51:03.878Z,6.20
2023-02-04T00:53:33.276Z,6.20
2023-02-04T00:56:00.848Z,6.20
2023-02-04T00:58:28.471Z,6.20
2023-02-04T01:00:56.195Z,6.20
2023-02-04T01:03:24.335Z,6.10
2023-02-04T01:05:54.006Z,6.10
2023-02-04T01:08:22.173Z,6.00
2023-02-04T01:10:49.536Z,6.10
2023-02-04T01:13:17.059Z,6.10
2023-02-04T01:15:45.528Z,6.00
2023-02-04T01:18:13.463Z,6.10
2023-02-04T01:20:41.785Z,6.10
2023-02-04T01:23:09.502Z,6.10
2023-02-04T01:25:37.196Z,6.10
2023-02-04T01:28:06.805Z,6.10
2023-02-04T01:30:34.780Z,6.00
2023-02-04T01:33:22.560Z,6.10
2023-02-04T01:35:51.474Z,6.10
2023-02-04T01:38:19.034Z,6.00
2023-02-04T01:40:46.487Z,6.00
2023-02-04T01:43:14.617Z,6.00
2023-02-04T01:45:42.334Z,6.00
2023-02-04T01:48:10.109Z,6.00
2023-02-04T01:50:38.762Z,6.00
2023-02-04T01:53:06.354Z,6.00
2023-02-04T01:55:34.459Z,6.10
2023-02-04T01:58:04.222Z,6.10
2023-02-04T02:00:34.080Z,6.00
2023-02-04T02:03:01.624Z,6.10
2023-02-04T02:05:36.280Z,6.10
2023-02-04T02:08:06.666Z,6.00
2023-02-04T02:13:19.074Z,6.10
2023-02-04T02:15:48.165Z,6.00
2023-02-04T02:18:16.677Z,6.00
2023-02-04T02:20:45.704Z,6.00
2023-02-04T02:23:37.796Z,5.90
2023-02-04T02:26:05.704Z,6.00
2023-02-04T02:28:33.431Z,5.90
2023-02-04T02:31:01.347Z,5.90
2023-02-04T02:33:29.153Z,5.80
2023-02-04T02:36:16.940Z,5.80
2023-02-04T02:41:41.342Z,5.80
2023-02-04T02:44:11.623Z,5.80
2023-02-04T02:46:42.531Z,5.80
2023-02-04T02:49:17.652Z,5.70
2023-02-04T02:51:47.400Z,5.80
2023-02-04T02:54:30.475Z,5.70
2023-02-04T02:57:00.796Z,5.70
2023-02-04T02:59:29.006Z,5.70
2023-02-04T03:02:00.084Z,5.70
2023-02-04T03:04:31.909Z,5.80
2023-02-04T03:07:00.713Z,5.80
2023-02-04T03:09:29.880Z,5.80
2023-02-04T03:11:57.814Z,5.70
2023-02-04T03:14:29.509Z,5.70
2023-02-04T03:19:52.503Z,5.70
2023-02-04T03:22:22.729Z,5.70
2023-02-04T03:24:50.924Z,5.80
2023-02-04T03:27:19.726Z,5.70
2023-02-04T03:29:47.544Z,5.60
2023-02-04T03:32:15.274Z,5.60
2023-02-04T03:34:43.245Z,5.60
2023-02-04T03:37:12.217Z,5.60
2023-02-04T03:39:40.738Z,5.60
2023-02-04T03:42:09.692Z,5.50
2023-02-04T03:44:38.175Z,5.40
2023-02-04T03:47:06.714Z,5.40
2023-02-04T03:49:36.421Z,5.40
2023-02-04T03:52:06.416Z,5.40
2023-02-04T03:54:35.674Z,5.40
2023-02-04T03:57:04.275Z,5.40
2023-02-04T03:59:31.763Z,5.40
2023-02-04T04:02:00.384Z,5.40
2023-02-04T04:04:27.949Z,5.50
2023-02-04T04:06:55.934Z,5.50
2023-02-04T04:09:23.813Z,5.50
2023-02-04T04:11:53.061Z,5.50
2023-02-04T04:14:20.717Z,5.40
2023-02-04T04:16:48.786Z,5.40
2023-02-04T04:19:16.199Z,5.40
2023-02-04T04:21:44.099Z,5.40
2023-02-04T04:24:11.625Z,5.40
2023-02-04T04:26:39.311Z,5.50
2023-02-04T04:29:08.157Z,5.50
2023-02-04T04:31:36.361Z,5.50
2023-02-04T04:34:04.045Z,5.50
2023-02-04T04:36:32.225Z,5.50
2023-02-04T04:39:00.345Z,5.50
2023-02-04T04:41:27.913Z,5.50
2023-02-04T04:43:55.723Z,5.50
2023-02-04T04:46:23.475Z,5.50
2023-02-04T04:48:51.114Z,5.50
2023-02-04T04:51:18.922Z,5.50
2023-02-04T04:53:46.689Z,5.50
2023-02-04T04:56:14.726Z,5.50
2023-02-04T04:58:41.970Z,5.50
2023-02-04T05:01:09.689Z,5.50
2023-02-04T05:03:37.073Z,5.50
2023-02-04T05:06:04.965Z,5.40
2023-02-04T05:08:32.288Z,5.40
2023-02-04T05:11:00.621Z,5.40
2023-02-04T05:13:28.391Z,5.40
2023-02-04T05:15:56.698Z,5.50
2023-02-04T05:18:25.836Z,5.50
2023-02-04T05:20:53.842Z,5.40
2023-02-04T05:23:21.442Z,5.40
2023-02-04T05:25:49.059Z,5.40
2023-02-04T05:28:17.281Z,5.40
2023-02-04T05:30:45.095Z,5.30
2023-02-04T05:33:12.946Z,5.30
2023-02-04T05:35:40.943Z,5.30
2023-02-04T05:38:11.920Z,5.30
2023-02-04T05:40:39.699Z,5.30
2023-02-04T05:43:07.221Z,5.30
2023-02-04T05:45:35.501Z,5.30
2023-02-04T05:48:03.948Z,5.30
2023-02-04T05:50:31.874Z,5.30
2023-02-04T05:53:01.735Z,5.30
2023-02-04T05:55:29.374Z,5.30
2023-02-04T05:57:57.213Z,5.30
2023-02-04T06:00:32.539Z,5.30
2023-02-04T06:03:04.385Z,5.30
2023-02-04T06:05:32.846Z,5.30
2023-02-04T06:08:00.593Z,5.40
2023-02-04T06:10:28.010Z,5.30
2023-02-04T06:12:55.848Z,5.30
2023-02-04T06:15:23.434Z,5.20
2023-02-04T06:17:51.230Z,5.30
2023-02-04T06:20:19.174Z,5.40
2023-02-04T06:22:48.105Z,5.40
2023-02-04T06:25:15.835Z,5.30
2023-02-04T06:27:43.798Z,5.30
2023-02-04T06:30:12.179Z,5.30
2023-02-04T06:32:40.190Z,5.30
2023-02-04T06:35:10.590Z,5.30
2023-02-04T06:37:38.270Z,5.30
2023-02-04T06:40:06.829Z,5.40
2023-02-04T06:42:34.517Z,5.30
2023-02-04T06:45:02.152Z,5.40
2023-02-04T06:47:30.421Z,5.30
2023-02-04T06:49:57.877Z,5.30
2023-02-04T06:52:26.058Z,5.30
2023-02-04T06:54:53.815Z,5.30
2023-02-04T06:57:21.720Z,5.30
2023-02-04T06:59:52.253Z,5.30
2023-02-04T07:02:20.089Z,5.40
2023-02-04T07:04:47.894Z,5.40
2023-02-04T07:07:15.766Z,5.40
2023-02-04T07:09:43.323Z,5.40
2023-02-04T07:12:11.010Z,5.40
2023-02-04T07:14:38.677Z,5.40
2023-02-04T07:17:06.667Z,5.40
2023-02-04T07:19:34.567Z,5.50
2023-02-04T07:22:03.548Z,5.50
2023-02-04T07:24:31.242Z,5.60
2023-02-04T07:26:58.901Z,5.70
2023-02-04T07:29:27.509Z,5.70
2023-02-04T07:31:55.602Z,5.80
2023-02-04T07:34:23.286Z,5.80
2023-02-04T07:36:51.017Z,5.90
2023-02-04T07:39:18.832Z,5.90
2023-02-04T07:41:46.560Z,6.00
2023-02-04T07:44:14.468Z,6.00
2023-02-04T07:46:42.776Z,6.00
2023-02-04T07:49:10.643Z,6.10
2023-02-04T07:51:38.466Z,6.20
2023-02-04T07:54:06.364Z,6.20
2023-02-04T07:56:33.913Z,6.30
2023-02-04T07:59:02.489Z,6.30
2023-02-04T08:01:30.463Z,6.30
2023-02-04T08:03:58.012Z,6.30
2023-02-04T08:06:26.080Z,6.30
2023-02-04T08:08:54.342Z,6.30
2023-02-04T08:11:22.175Z,6.30
2023-02-04T08:13:50.085Z,6.30
2023-02-04T08:16:18.256Z,6.40
2023-02-04T08:18:45.990Z,6.40
2023-02-04T08:21:13.981Z,6.50
2023-02-04T08:23:42.329Z,6.50
2023-02-04T08:26:13.423Z,6.40
2023-02-04T08:28:41.027Z,6.40
2023-02-04T08:31:11.988Z,6.40
2023-02-04T08:33:40.447Z,6.50
2023-02-04T08:36:08.733Z,6.60
2023-02-04T08:38:36.638Z,6.70
2023-02-04T08:41:04.751Z,6.70
2023-02-04T08:43:32.546Z,6.80
2023-02-04T08:46:00.169Z,6.90
2023-02-04T08:48:28.186Z,7.00
2023-02-04T08:50:56.188Z,7.10
2023-02-04T08:53:24.049Z,7.20
2023-02-04T08:55:51.703Z,7.30
2023-02-04T08:58:20.090Z,7.30
2023-02-04T09:00:47.714Z,7.40
2023-02-04T09:03:15.497Z,7.40
2023-02-04T09:05:43.064Z,7.40
2023-02-04T09:08:11.157Z,7.50
2023-02-04T09:10:38.826Z,7.50
2023-02-04T09:13:06.653Z,7.60
2023-02-04T09:15:34.303Z,7.70
2023-02-04T09:18:04.198Z,7.70
2023-02-04T09:20:32.082Z,7.80
2023-02-04T09:23:00.498Z,7.80
2023-02-04T09:25:27.910Z,7.90
2023-02-04T09:27:56.032Z,8.00
2023-02-04T09:30:24.128Z,8.00
2023-02-04T09:32:51.770Z,8.00
2023-02-04T09:35:19.305Z,8.10
2023-02-04T09:37:46.917Z,8.10
2023-02-04T09:40:21.080Z,8.20
2023-02-04T09:42:52.966Z,8.20
2023-02-04T09:45:24.540Z,8.30
2023-02-04T09:47:53.856Z,8.40
2023-02-04T09:50:27.259Z,8.50
2023-02-04T09:52:59.136Z,8.50
2023-02-04T09:55:36.956Z,8.60
2023-02-04T09:58:08.458Z,8.70
2023-02-04T10:00:35.952Z,8.70
2023-02-04T10:03:04.032Z,8.80
2023-02-04T10:05:37.239Z,8.90
2023-02-04T10:08:06.915Z,9.00
2023-02-04T10:10:34.978Z,9.00
2023-02-04T10:13:04.087Z,9.10
2023-02-04T10:15:31.757Z,9.10
2023-02-04T10:18:05.363Z,9.20
2023-02-04T10:20:34.413Z,9.30
2023-02-04T10:23:02.336Z,9.30
2023-02-04T10:25:30.309Z,9.40
2023-02-04T10:27:59.933Z,9.40
2023-02-04T10:30:33.070Z,9.50
2023-02-04T10:33:01.585Z,9.60
2023-02-04T10:35:29.569Z,9.60
2023-02-04T10:38:06.241Z,9.60
2023-02-04T10:40:37.289Z,9.70
2023-02-04T10:43:12.188Z,9.80
2023-02-04T10:45:40.123Z,9.90
2023-02-04T10:48:09.845Z,10.00
2023-02-04T10:50:37.921Z,10.00
2023-02-04T10:53:23.856Z,10.10
2023-02-04T10:55:51.717Z,10.10
2023-02-04T10:58:23.133Z,10.20
2023-02-04T11:00:51.006Z,10.30
2023-02-04T11:03:27.775Z,10.40
2023-02-04T11:05:58.796Z,10.50
2023-02-04T11:08:30.099Z,10.50
2023-02-04T11:11:10.131Z,10.60
2023-02-04T11:13:44.288Z,10.70
2023-02-04T11:16:21.381Z,10.80
2023-02-04T11:19:01.140Z,10.90
2023-02-04T11:21:35.767Z,11.00
2023-02-04T11:24:15.947Z,11.10
2023-02-04T11:26:49.543Z,11.20
2023-02-04T11:29:26.688Z,11.30
2023-02-04T11:32:03.685Z,11.40
2023-02-04T11:34:33.400Z,11.50
2023-02-04T11:37:13.679Z,11.60
2023-02-04T11:39:44.365Z,11.60
2023-02-04T11:42:24.941Z,11.70
2023-02-04T11:45:10.553Z,11.80
2023-02-04T11:47:41.029Z,11.90
2023-02-04T11:50:28.089Z,12.00
2023-02-04T11:52:56.016Z,12.00
2023-02-04T11:55:23.864Z,12.10
2023-02-04T11:57:53.990Z,12.20
2023-02-04T12:00:30.165Z,12.20
2023-02-04T12:03:00.698Z,12.30
2023-02-04T12:05:43.250Z,12.40
2023-02-04T12:08:13.197Z,12.50
2023-02-04T12:10:44.678Z,12.70
2023-02-04T12:13:16.254Z,12.80
2023-02-04T12:15:47.932Z,12.90
2023-02-04T12:18:17.278Z,13.00
2023-02-04T12:20:44.956Z,13.10
2023-02-04T12:23:13.307Z,13.20
2023-02-04T12:25:40.948Z,13.40
2023-02-04T12:28:09.195Z,13.50
2023-02-04T12:30:36.975Z,13.70
2023-02-04T12:33:04.987Z,13.90
2023-02-04T12:35:32.715Z,14.00
2023-02-04T12:38:01.174Z,14.20
2023-02-04T12:40:29.202Z,14.40
2023-02-04T12:42:57.024Z,14.60
2023-02-04T12:45:25.475Z,14.90
2023-02-04T12:47:52.964Z,15.10
2023-02-04T12:50:23.816Z,15.30
2023-02-04T12:52:57.048Z,15.50
2023-02-04T12:55:27.428Z,15.60
2023-02-04T12:57:56.766Z,15.80
2023-02-04T13:00:33.917Z,15.90
2023-02-04T13:03:11.492Z,16.20
2023-02-04T13:05:51.286Z,16.40
2023-02-04T13:08:11.573Z,16.50
2023-02-04T13:10:39.363Z,16.70
2023-02-04T13:13:07.156Z,16.90
2023-02-04T13:15:36.208Z,17.10
2023-02-04T13:18:04.242Z,17.30
2023-02-04T13:20:33.108Z,17.50
2023-02-04T13:23:01.235Z,17.80
2023-02-04T13:25:28.890Z,18.00
2023-02-04T13:27:58.593Z,18.10
2023-02-04T13:30:26.476Z,18.30
2023-02-04T13:32:54.040Z,18.50
2023-02-04T13:35:21.869Z,18.70
2023-02-04T13:37:49.608Z,18.80
2023-02-04T13:40:17.517Z,19.00
2023-02-04T13:42:45.243Z,19.10
2023-02-04T13:45:13.396Z,19.30
2023-02-04T13:47:41.237Z,19.50
2023-02-04T13:50:12.136Z,19.70
2023-02-04T13:52:39.736Z,19.70
2023-02-04T13:55:07.431Z,19.80
2023-02-04T13:57:34.967Z,20.00
2023-02-04T14:00:02.611Z,20.20
2023-02-04T14:02:32.115Z,20.30
2023-02-04T14:05:00.321Z,20.50
2023-02-04T14:07:28.024Z,20.90
2023-02-04T14:09:55.919Z,21.40
2023-02-04T14:12:24.302Z,22.10
2023-02-04T14:14:52.049Z,22.80
2023-02-04T14:17:21.429Z,23.40
2023-02-04T14:19:49.083Z,24.10
2023-02-04T14:22:16.958Z,24.60
2023-02-04T14:24:45.216Z,25.10
2023-02-04T14:27:12.949Z,26.00
2023-02-04T14:29:41.186Z,26.40
2023-02-04T14:32:08.830Z,27.00
2023-02-04T14:34:36.496Z,27.70
2023-02-04T14:37:04.154Z,28.20
2023-02-04T14:39:32.267Z,28.50
2023-02-04T14:42:01.031Z,28.50
2023-02-04T14:44:28.461Z,28.90
2023-02-04T14:46:56.381Z,29.00
2023-02-04T14:49:26.301Z,29.00
2023-02-04T14:51:53.676Z,29.10
2023-02-04T14:54:21.186Z,29.20
2023-02-04T14:56:53.530Z,29.30
2023-02-04T14:59:21.441Z,29.20
2023-02-04T15:01:49.456Z,29.10
2023-02-04T15:04:18.644Z,28.60
2023-02-04T15:06:48.336Z,28.20
2023-02-04T15:09:15.720Z,27.80
2023-02-04T15:11:43.533Z,27.50
2023-02-04T15:14:12.634Z,27.10
2023-02-04T15:16:42.390Z,26.50
2023-02-04T15:19:10.626Z,25.90
2023-02-04T15:21:38.477Z,25.20
2023-02-04T15:24:07.708Z,24.50
2023-02-04T15:26:35.610Z,23.80
2023-02-04T15:29:03.295Z,23.30
2023-02-04T15:31:31.539Z,23.00
2023-02-04T15:33:59.194Z,22.50
2023-02-04T15:36:27.665Z,22.10
2023-02-04T15:38:55.657Z,21.80
2023-02-04T15:41:24.718Z,21.50
2023-02-04T15:43:52.671Z,21.10
2023-02-04T15:46:21.977Z,20.60
2023-02-04T15:48:49.437Z,20.20
2023-02-04T15:51:18.324Z,19.80
2023-02-04T15:53:46.222Z,19.50
2023-02-04T15:56:14.074Z,19.10
2023-02-04T15:58:42.276Z,18.70
2023-02-04T16:01:10.213Z,18.30
2023-02-04T16:03:38.098Z,18.00
2023-02-04T16:06:06.708Z,17.80
2023-02-04T16:11:21.916Z,17.30
2023-02-04T16:13:49.676Z,17.10
2023-02-04T16:16:17.849Z,16.70
2023-02-04T16:18:45.461Z,16.50
2023-02-04T16:21:13.860Z,16.20
2023-02-04T16:23:43.495Z,15.90
2023-02-04T16:26:11.802Z,15.60
2023-02-04T16:28:39.636Z,15.30
2023-02-04T16:31:09.806Z,15.10
2023-02-04T16:33:37.649Z,14.90
2023-02-04T16:36:11.380Z,14.70
2023-02-04T16:38:39.790Z,14.50
2023-02-04T16:41:07.730Z,14.30
2023-02-04T16:43:35.728Z,14.20
2023-02-04T16:46:04.087Z,14.10
2023-02-04T16:48:32.298Z,14.10
2023-02-04T16:51:00.244Z,14.00
2023-02-04T16:53:29.225Z,13.90
2023-02-04T16:55:57.015Z,13.80
2023-02-04T16:58:25.060Z,13.80
2023-02-04T17:00:52.536Z,13.80
2023-02-04T17:03:20.235Z,13.70
2023-02-04T17:05:47.966Z,13.60
2023-02-04T17:08:18.728Z,13.60
2023-02-04T17:11:06.836Z,13.50
2023-02-04T17:13:34.799Z,13.50
2023-02-04T17:16:02.758Z,13.50
2023-02-04T17:18:32.481Z,13.40
2023-02-04T17:21:00.730Z,13.40
2023-02-04T17:23:29.223Z,13.40
2023-02-04T17:25:56.666Z,13.40
2023-02-04T17:28:24.969Z,13.40
2023-02-04T17:30:52.875Z,13.40
2023-02-04T17:33:20.952Z,13.30
2023-02-04T17:35:49.036Z,13.30
2023-02-04T17:38:16.483Z,13.30
2023-02-04T17:40:44.444Z,13.30
2023-02-04T17:43:12.389Z,13.30
2023-02-04T17:45:40.451Z,13.30
2023-02-04T17:48:08.741Z,13.20
2023-02-04T17:50:39.589Z,13.20
2023-02-04T17:53:08.602Z,13.20
2023-02-04T17:55:38.180Z,13.20
2023-02-04T17:58:16.017Z,13.20
2023-02-04T18:00:46.789Z,13.20
2023-02-04T18:03:17.661Z,13.20
2023-02-04T18:05:48.661Z,13.10
2023-02-04T18:08:26.279Z,13.10
2023-02-04T18:10:56.458Z,13.10
2023-02-04T18:13:27.689Z,13.10
2023-02-04T18:16:00.011Z,13.00
2023-02-04T18:18:33.842Z,13.00
2023-02-04T18:21:05.235Z,13.00
2023-02-04T18:23:34.892Z,13.00
2023-02-04T18:26:09.068Z,13.00
2023-02-04T18:28:39.279Z,13.00
2023-02-04T18:31:11.050Z,13.00
2023-02-04T18:33:40.734Z,12.90
2023-02-04T18:36:12.795Z,13.00
2023-02-04T18:38:43.496Z,13.00
2023-02-04T18:41:24.454Z,12.90
2023-02-04T18:44:02.998Z,12.90
2023-02-04T18:46:34.362Z,12.90
2023-02-04T18:49:06.048Z,12.90
2023-02-04T18:51:37.390Z,12.80
2023-02-04T18:54:32.448Z,12.80
2023-02-04T18:57:16.302Z,12.80
2023-02-04T18:59:45.583Z,12.80
2023-02-04T19:02:43.069Z,12.80
2023-02-04T19:05:34.153Z,12.80
2023-02-04T19:08:09.353Z,12.80
2023-02-04T19:10:38.642Z,12.70
2023-02-04T19:13:19.010Z,12.70
2023-02-04T19:15:53.498Z,12.70
2023-02-04T19:18:39.189Z,12.60
2023-02-04T19:21:29.125Z,12.60
2023-02-04T19:24:00.754Z,12.60
2023-02-04T19:26:37.603Z,12.60
2023-02-04T19:29:29.824Z,12.50
2023-02-04T19:32:11.438Z,12.60
2023-02-04T19:34:39.346Z,12.50
2023-02-04T19:37:20.521Z,12.50
2023-02-04T19:39:49.795Z,12.40
2023-02-04T19:42:36.650Z,12.40
2023-02-04T19:45:27.058Z,12.30
2023-02-04T19:47:56.752Z,12.40
2023-02-04T19:50:34.266Z,12.30
2023-02-04T19:53:06.160Z,12.30
2023-02-04T19:55:44.681Z,12.30
2023-02-04T19:58:22.372Z,12.30
2023-02-04T20:01:05.550Z,12.20
2023-02-04T20:03:49.993Z,12.30
2023-02-04T20:06:30.991Z,12.20
2023-02-04T20:09:20.813Z,12.30
2023-02-04T20:12:12.176Z,12.20
2023-02-04T20:14:45.582Z,12.20
2023-02-04T20:17:22.638Z,12.20
2023-02-04T20:19:51.309Z,12.20
2023-02-04T20:22:24.080Z,12.10
2023-02-04T20:24:55.496Z,12.10
2023-02-04T20:27:41.619Z,12.00
2023-02-04T20:30:16.432Z,12.00
2023-02-04T20:32:47.453Z,11.80
2023-02-04T20:35:19.343Z,11.80
2023-02-04T20:37:55.997Z,11.60
2023-02-04T20:40:36.053Z,11.60
2023-02-04T20:43:19.601Z,11.50
2023-02-04T20:45:59.038Z,11.40
2023-02-04T20:48:35.563Z,11.30
2023-02-04T20:51:05.277Z,11.20
2023-02-04T20:53:43.025Z,11.10
2023-02-04T20:56:23.816Z,11.00
2023-02-04T20:58:55.019Z,11.00
2023-02-04T21:01:37.556Z,11.00
2023-02-04T21:04:22.557Z,11.00
2023-02-04T21:06:53.345Z,11.00
2023-02-04T21:09:24.130Z,11.00
2023-02-04T21:11:54.194Z,10.90
2023-02-04T21:14:22.944Z,10.80
2023-02-04T21:16:51.376Z,10.80
2023-02-04T21:19:19.160Z,10.70
2023-02-04T21:21:47.559Z,10.70
2023-02-04T21:24:15.844Z,10.70
2023-02-04T21:26:43.639Z,10.70
2023-02-04T21:29:11.653Z,10.60
2023-02-04T21:31:39.800Z,10.60
2023-02-04T21:34:07.834Z,10.50
2023-02-04T21:36:35.913Z,10.50
2023-02-04T21:39:03.369Z,10.50
2023-02-04T21:41:31.730Z,10.40
2023-02-04T21:43:59.381Z,10.40
2023-02-04T21:46:27.502Z,10.30
2023-02-04T21:48:55.313Z,10.30
2023-02-04T21:51:23.591Z,10.30
2023-02-04T21:53:52.749Z,10.30
2023-02-04T21:56:20.888Z,10.30
2023-02-04T21:58:48.983Z,10.30
2023-02-04T22:01:17.475Z,10.20
2023-02-04T22:03:45.251Z,10.20
2023-02-04T22:06:13.234Z,10.20
2023-02-04T22:08:40.488Z,10.20
2023-02-04T22:11:09.432Z,10.20
2023-02-04T22:13:37.215Z,10.20
2023-02-04T22:16:05.504Z,10.10
2023-02-04T22:18:33.049Z,10.10
2023-02-04T22:21:01.251Z,10.10
2023-02-04T22:23:28.786Z,10.00
2023-02-04T22:25:56.582Z,10.00
2023-02-04T22:28:24.584Z,10.00
2023-02-04T22:30:54.287Z,9.90
2023-02-04T22:33:21.791Z,9.90
2023-02-04T22:35:49.370Z,9.90
2023-02-04T22:38:19.268Z,9.90
2023-02-04T22:40:48.835Z,9.80
2023-02-04T22:43:16.470Z,9.80
2023-02-04T22:45:44.443Z,9.80
2023-02-04T22:48:12.088Z,9.80
2023-02-04T22:50:39.876Z,9.80
2023-02-04T22:53:07.475Z,9.80
2023-02-04T22:55:35.485Z,9.70
2023-02-04T22:58:03.748Z,9.70
2023-02-04T23:00:32.308Z,9.60
2023-02-04T23:02:59.959Z,9.60
2023-02-04T23:05:27.721Z,9.60
2023-02-04T23:07:55.547Z,9.60
2023-02-04T23:10:23.574Z,9.60
2023-02-04T23:12:51.354Z,9.60
2023-02-04T23:15:19.362Z,9.60
2023-02-04T23:17:47.002Z,9.60
2023-02-04T23:20:15.092Z,9.50
2023-02-04T23:22:43.103Z,9.50
2023-02-04T23:25:10.948Z,9.40
2023-02-04T23:27:38.908Z,9.50
2023-02-04T23:30:07.838Z,9.40
2023-02-04T23:32:36.439Z,9.40
2023-02-04T23:35:04.526Z,9.40
2023-02-04T23:37:32.562Z,9.40
2023-02-04T23:40:00.805Z,9.40
2023-02-04T23:42:31.217Z,9.40
2023-02-04T23:44:59.070Z,9.30
2023-02-04T23:47:26.855Z,9.40
2023-02-04T23:49:55.060Z,9.30
2023-02-04T23:52:23.067Z,9.40
2023-02-04T23:54:50.950Z,9.40
2023-02-04T23:57:21.753Z,9.40
2023-02-04T23:59:49.609Z,9.40
